| time (UTC) | temp C | wind direction | speed KPH | gust KPH | rain 1hr cm | rain 24hr cm | rain mn cm | humidity % | barometer mb |
| 20260507191539 | 18 | 357 | 4.8 | 11.3 | 0.00 | 0.00 | 0.00 | 41 | 100.5 |
| 20260507191014 | 18 | 339 | 3.2 | 6.4 | 0.00 | 0.00 | 0.00 | 38 | 1005.0 |
| 20260507190506 | 18 | 180 | 0.0 | 1.6 | 0.00 | 0.00 | 0.00 | 36 | 1005.0 |
| 20260507190005 | 18 | 162 | 0.0 | 1.6 | 0.00 | 0.00 | 0.00 | 36 | 1005.0 |
| 20260507185502 | 19 | 181 | 1.6 | 6.4 | 0.00 | 0.03 | 0.00 | 36 | 1005.0 |
| 20260507184955 | 20 | 179 | 1.6 | 6.4 | 0.00 | 0.03 | 0.00 | 33 | 1005.0 |
| 20260507184442 | 20 | 131 | 6.4 | 11.3 | 0.00 | 0.03 | 0.00 | 29 | 1005.0 |
| 20260507183925 | 21 | 128 | 1.6 | 3.2 | 0.00 | 0.03 | 0.00 | 30 | 1005.0 |
| 20260507183422 | 21 | 203 | 4.8 | 6.4 | 0.00 | 0.03 | 0.00 | 30 | 1005.4 |
| 20260507182921 | 22 | 307 | 0.0 | 1.6 | 0.00 | 0.03 | 0.00 | 38 | 1005.4 |
| 20260507182414 | 21 | 357 | 1.6 | 6.4 | 0.00 | 0.03 | 0.00 | 36 | 1005.4 |
| 20260507181912 | 20 | 135 | 1.6 | 3.2 | 0.00 | 0.03 | 0.00 | 37 | 1005.4 |
| 20260507181410 | 20 | 180 | 1.6 | 3.2 | 0.00 | 0.03 | 0.00 | 35 | 1005.4 |
| 20260507180906 | 20 | 360 | 0.0 | 0.0 | 0.00 | 0.03 | 0.00 | 38 | 1005.7 |
| 20260507180354 | 20 | 235 | 1.6 | 6.4 | 0.00 | 0.03 | 0.00 | 36 | 1005.7 |
| 20260507175849 | 20 | 225 | 1.6 | 6.4 | 0.00 | 0.03 | 0.00 | 31 | 1005.7 |
| 20260507175337 | 21 | 332 | 4.8 | 8.0 | 0.00 | 0.03 | 0.00 | 35 | 1006.0 |
| 20260507174837 | 20 | 337 | 8.0 | 11.3 | 0.00 | 0.03 | 0.00 | 34 | 1005.7 |
| 20260507174331 | 20 | 40 | 1.6 | 3.2 | 0.00 | 0.03 | 0.00 | 43 | 1005.7 |
| 20260507173828 | 20 | 356 | 6.4 | 8.0 | 0.00 | 0.03 | 0.00 | 39 | 1006.0 |
| 20260507173324 | 20 | 360 | 1.6 | 8.0 | 0.00 | 0.03 | 0.00 | 36 | 1006.0 |
| 20260507172820 | 20 | 10 | 1.6 | 8.0 | 0.00 | 0.03 | 0.00 | 38 | 1006.0 |
| 20260507172317 | 20 | 278 | 1.6 | 6.4 | 0.00 | 0.03 | 0.00 | 39 | 100.5 |
| 20260507171755 | 19 | 192 | 0.0 | 1.6 | 0.00 | 0.03 | 0.00 | 41 | 1006.4 |
| 20260507171239 | 19 | 315 | 3.2 | 12.9 | 0.03 | 0.03 | 0.00 | 37 | 1006.4 |
| 20260507170729 | 18 | 328 | 1.6 | 6.4 | 0.03 | 0.03 | 0.00 | 41 | 1006.7 |
| 20260507170225 | 18 | 335 | 4.8 | 6.4 | 0.03 | 0.03 | 0.00 | 39 | 1006.7 |
| 20260507165723 | 18 | 292 | 0.0 | 3.2 | 0.03 | 0.03 | 0.00 | 43 | 1007.1 |
| 20260507165213 | 18 | 28 | 1.6 | 3.2 | 0.03 | 0.03 | 0.00 | 38 | 1007.1 |
| 20260507164702 | 18 | 270 | 0.0 | 8.0 | 0.03 | 0.03 | 0.00 | 45 | 1007.1 |
| 20260507164201 | 18 | 325 | 3.2 | 6.4 | 0.03 | 0.03 | 0.00 | 42 | 1007.1 |
| 20260507163654 | 17 | 297 | 1.6 | 8.0 | 0.03 | 0.03 | 0.00 | 42 | 1007.4 |
| 20260507163136 | 17 | 314 | 1.6 | 3.2 | 0.03 | 0.03 | 0.00 | 46 | 1007.4 |
| 20260507162636 | 17 | 158 | 0.0 | 3.2 | 0.03 | 0.03 | 0.00 | 44 | 1007.4 |
| 20260507162132 | 16 | 21 | 3.2 | 3.2 | 0.03 | 0.03 | 0.00 | 43 | 1007.4 |
| 20260507161625 | 16 | 42 | 1.6 | 3.2 | 0.00 | 0.00 | 0.00 | 43 | 1007.4 |
| 20260507161121 | 16 | 322 | 4.8 | 6.4 | 0.00 | 0.00 | 0.00 | 43 | 1007.4 |
| 20260507160610 | 16 | 166 | 1.6 | 3.2 | 0.00 | 0.00 | 0.00 | 44 | 1007.7 |
| 20260507160107 | 15 | 180 | 0.0 | 1.6 | 0.00 | 0.00 | 0.00 | 41 | 1007.4 |
| 20260507155606 | 15 | 179 | 3.2 | 3.2 | 0.00 | 0.00 | 0.00 | 42 | 1007.7 |
| 20260507155102 | 15 | 180 | 1.6 | 6.4 | 0.00 | 0.00 | 0.00 | 43 | 1007.7 |
| 20260507154543 | 15 | 180 | 1.6 | 6.4 | 0.00 | 0.00 | 0.00 | 43 | 1007.7 |
| 20260507154031 | 14 | 185 | 3.2 | 3.2 | 0.00 | 0.00 | 0.00 | 44 | 1007.7 |
| 20260507153525 | 14 | 142 | 1.6 | 6.4 | 0.00 | 0.00 | 0.00 | 45 | 1007.7 |
| 20260507153025 | 14 | 124 | 1.6 | 6.4 | 0.00 | 0.00 | 0.00 | 41 | 1007.7 |
| 20260507152514 | 14 | 147 | 4.8 | 12.9 | 0.00 | 0.00 | 0.00 | 41 | 1007.7 |
| 20260507152010 | 14 | 140 | 1.6 | 11.3 | 0.00 | 0.00 | 0.00 | 44 | 1008.1 |
| 20260507151508 | 14 | 210 | 1.6 | 6.4 | 0.00 | 0.00 | 0.00 | 47 | 1008.1 |
| 20260507151007 | 14 | 130 | 3.2 | 8.0 | 0.00 | 0.00 | 0.00 | 42 | 1008.1 |
| 20260507150505 | 14 | 169 | 1.6 | 1.6 | 0.00 | 0.00 | 0.00 | 47 | 1008.1 |
| 20260507150002 | 14 | 135 | 1.6 | 3.2 | 0.00 | 0.00 | 0.00 | 47 | 1008.1 |
| 20260507145459 | 13 | 124 | 1.6 | 8.0 | 0.00 | 0.00 | 0.00 | 50 | 1008.1 |
| 20260507144958 | 13 | 225 | 0.0 | 3.2 | 0.00 | 0.00 | 0.00 | 49 | 1008.4 |
| 20260507144445 | 13 | 180 | 1.6 | 3.2 | 0.00 | 0.00 | 0.00 | 50 | 1008.4 |
| 20260507143941 | 13 | 180 | 1.6 | 3.2 | 0.00 | 0.00 | 0.00 | 51 | 1008.4 |
| 20260507143434 | 13 | 180 | 0.0 | 3.2 | 0.00 | 0.00 | 0.00 | 52 | 1008.4 |
| 20260507142915 | 12 | 180 | 1.6 | 6.4 | 0.00 | 0.00 | 0.00 | 48 | 1008.4 |
| 20260507142408 | 12 | 180 | 0.0 | 3.2 | 0.00 | 0.00 | 0.00 | 52 | 1008.4 |
| 20260507141907 | 12 | 188 | 1.6 | 3.2 | 0.00 | 0.00 | 0.00 | 50 | 1008.4 |
| 20260507141403 | 12 | 180 | 0.0 | 3.2 | 0.00 | 0.00 | 0.00 | 54 | 1008.4 |
| 20260507140855 | 12 | 166 | 3.2 | 6.4 | 0.00 | 0.00 | 0.00 | 51 | 1008.4 |
| 20260507140348 | 12 | 180 | 1.6 | 3.2 | 0.00 | 0.00 | 0.00 | 52 | 1008.8 |
| 20260507135831 | 12 | 135 | 0.0 | 3.2 | 0.00 | 0.00 | 0.00 | 55 | 1008.8 |
| 20260507135327 | 12 | 174 | 1.6 | 3.2 | 0.00 | 0.00 | 0.00 | 56 | 1008.8 |
| 20260507134819 | 11 | 178 | 3.2 | 6.4 | 0.00 | 0.00 | 0.00 | 53 | 1008.8 |
| 20260507134256 | 11 | 152 | 1.6 | 3.2 | 0.00 | 0.00 | 0.00 | 52 | 1008.8 |
| 20260507133753 | 11 | 202 | 0.0 | 1.6 | 0.00 | 0.00 | 0.00 | 54 | 1009.1 |
| 20260507133243 | 11 | 180 | 1.6 | 3.2 | 0.00 | 0.00 | 0.00 | 54 | 1009.1 |
| 20260507132740 | 11 | 180 | 1.6 | 3.2 | 0.00 | 0.00 | 0.00 | 53 | 1009.1 |
| 20260507132230 | 11 | 180 | 0.0 | 3.2 | 0.00 | 0.00 | 0.00 | 53 | 1009.1 |
| 20260507131709 | 11 | 134 | 1.6 | 6.4 | 0.00 | 0.00 | 0.00 | 52 | 1008.8 |
| 20260507131205 | 11 | 132 | 0.0 | 1.6 | 0.00 | 0.00 | 0.00 | 54 | 1008.8 |
| 20260507130653 | 11 | 180 | 0.0 | 3.2 | 0.00 | 0.00 | 0.00 | 58 | 1009.1 |
| 20260507130150 | 11 | 180 | 0.0 | 3.2 | 0.00 | 0.00 | 0.00 | 56 | 1008.8 |
| 20260507125649 | 11 | 135 | 0.0 | 1.6 | 0.00 | 0.00 | 0.00 | 57 | 1008.8 |
| 20260507125145 | 11 | 180 | 0.0 | 3.2 | 0.00 | 0.00 | 0.00 | 56 | 1008.8 |
| 20260507124644 | 11 | 188 | 3.2 | 6.4 | 0.00 | 0.00 | 0.00 | 54 | 1008.8 |
| 20260507124137 | 11 | 147 | 1.6 | 3.2 | 0.00 | 0.00 | 0.00 | 55 | 1008.8 |
| 20260507123632 | 11 | 180 | 4.8 | 8.0 | 0.00 | 0.00 | 0.00 | 56 | 1008.8 |
| 20260507123128 | 11 | 180 | 1.6 | 3.2 | 0.00 | 0.00 | 0.00 | 57 | 1008.8 |
| 20260507122622 | 11 | 180 | 0.0 | 1.6 | 0.00 | 0.00 | 0.00 | 56 | 1008.8 |
| 20260507122121 | 11 | 135 | 0.0 | 1.6 | 0.00 | 0.00 | 0.00 | 58 | 1009.1 |
| 20260507121618 | 11 | 180 | 0.0 | 1.6 | 0.00 | 0.00 | 0.00 | 56 | 1008.8 |
| 20260507121055 | 11 | 225 | 0.0 | 3.2 | 0.00 | 0.00 | 0.00 | 57 | 1008.8 |
| 20260507120550 | 11 | 180 | 0.0 | 8.0 | 0.00 | 0.00 | 0.00 | 56 | 1008.8 |
| 20260507120039 | 11 | 180 | 0.0 | 3.2 | 0.00 | 0.00 | 0.00 | 61 | 1008.8 |
| 20260507115528 | 12 | 146 | 1.6 | 3.2 | 0.00 | 0.00 | 0.00 | 61 | 1008.8 |
| 20260507115022 | 12 | 135 | 0.0 | 0.0 | 0.00 | 0.00 | 0.00 | 62 | 1008.8 |
| 20260507114521 | 12 | 225 | 1.6 | 8.0 | 0.00 | 0.00 | 0.00 | 60 | 1008.8 |
| 20260507114017 | 12 | 135 | 1.6 | 3.2 | 0.00 | 0.00 | 0.00 | 60 | 1008.4 |
| 20260507113512 | 12 | 174 | 1.6 | 8.0 | 0.00 | 0.00 | 0.00 | 61 | 1008.4 |
| 20260507113000 | 12 | 144 | 4.8 | 11.3 | 0.00 | 0.00 | 0.00 | 61 | 1008.4 |
| 20260507112458 | 12 | 164 | 1.6 | 1.6 | 0.00 | 0.00 | 0.00 | 64 | 1008.1 |
| 20260507111956 | 12 | 135 | 1.6 | 6.4 | 0.00 | 0.00 | 0.00 | 67 | 1008.1 |
| 20260507111455 | 12 | 156 | 0.0 | 3.2 | 0.00 | 0.00 | 0.00 | 68 | 1008.1 |
| 20260507110947 | 12 | 146 | 1.6 | 6.4 | 0.00 | 0.00 | 0.00 | 70 | 1008.1 |
| 20260507110445 | 12 | 136 | 1.6 | 11.3 | 0.00 | 0.00 | 0.00 | 70 | 1008.1 |
| 20260507105938 | 12 | 135 | 0.0 | 3.2 | 0.00 | 0.00 | 0.00 | 72 | 1008.1 |
| 20260507105437 | 12 | 180 | 1.6 | 1.6 | 0.00 | 0.00 | 0.00 | 72 | 1008.1 |
| 20260507104934 | 12 | 180 | 0.0 | 1.6 | 0.00 | 0.00 | 0.00 | 72 | 1008.1 |
| 20260507104430 | 12 | 146 | 1.6 | 3.2 | 0.00 | 0.00 | 0.00 | 72 | 1008.1 |
| 20260507103916 | 12 | 180 | 0.0 | 1.6 | 0.00 | 0.00 | 0.00 | 73 | 1008.1 |
| 20260507103413 | 12 | 168 | 1.6 | 3.2 | 0.00 | 0.00 | 0.00 | 71 | 1007.7 |
| 20260507102911 | 12 | 135 | 0.0 | 1.6 | 0.00 | 0.00 | 0.00 | 73 | 1007.7 |
| 20260507102401 | 12 | 180 | 0.0 | 1.6 | 0.00 | 0.00 | 0.00 | 73 | 1007.7 |
| 20260507101847 | 12 | 180 | 0.0 | 1.6 | 0.00 | 0.00 | 0.00 | 75 | 1007.7 |
| 20260507101343 | 12 | 135 | 0.0 | 1.6 | 0.00 | 0.00 | 0.00 | 74 | 1007.7 |
| 20260507100837 | 12 | 180 | 0.0 | 3.2 | 0.00 | 0.00 | 0.00 | 75 | 1007.7 |
| 20260507100324 | 12 | 180 | 0.0 | 1.6 | 0.00 | 0.00 | 0.00 | 74 | 1007.4 |
| 20260507095813 | 12 | 180 | 0.0 | 1.6 | 0.00 | 0.00 | 0.00 | 76 | 1007.7 |
| 20260507095258 | 12 | 180 | 0.0 | 0.0 | 0.00 | 0.00 | 0.00 | 77 | 1007.7 |
| 20260507094756 | 12 | 180 | 0.0 | 0.0 | 0.00 | 0.00 | 0.00 | 77 | 1007.4 |
| 20260507094255 | 12 | 180 | 0.0 | 0.0 | 0.00 | 0.00 | 0.00 | 77 | 1007.4 |
| 20260507093752 | 12 | 180 | 0.0 | 0.0 | 0.00 | 0.00 | 0.00 | 75 | 1007.4 |
| 20260507093241 | 12 | 180 | 0.0 | 0.0 | 0.00 | 0.00 | 0.00 | 75 | 1007.4 |
| 20260507092740 | 12 | 135 | 0.0 | 1.6 | 0.00 | 0.00 | 0.00 | 73 | 1007.4 |
| 20260507092230 | 12 | 225 | 1.6 | 3.2 | 0.00 | 0.00 | 0.00 | 72 | 1007.4 |
| 20260507091717 | 12 | 180 | 0.0 | 1.6 | 0.00 | 0.00 | 0.00 | 74 | 1007.4 |
| 20260507091214 | 12 | 180 | 0.0 | 1.6 | 0.00 | 0.00 | 0.00 | 72 | 1007.1 |
| 20260507090703 | 12 | 184 | 4.8 | 8.0 | 0.00 | 0.00 | 0.00 | 70 | 1007.1 |
| 20260507090156 | 12 | 135 | 0.0 | 6.4 | 0.00 | 0.00 | 0.00 | 73 | 1007.1 |
| 20260507085752 | 12 | 180 | 0.0 | 3.2 | 0.00 | 0.00 | 0.00 | 74 | 1007.1 |
| 20260507085247 | 12 | 180 | 1.6 | 8.0 | 0.00 | 0.00 | 0.00 | 75 | 1007.4 |
| 20260507084742 | 12 | 180 | 0.0 | 0.0 | 0.00 | 1.30 | 0.00 | 79 | 1007.1 |
| 20260507084235 | 12 | 180 | 0.0 | 1.6 | 0.00 | 1.30 | 0.00 | 78 | 1007.4 |
| 20260507083729 | 12 | 180 | 0.0 | 1.6 | 0.00 | 1.30 | 0.00 | 78 | 1007.4 |
| 20260507083225 | 12 | 180 | 0.0 | 1.6 | 0.00 | 1.30 | 0.00 | 77 | 1007.4 |
| 20260507082720 | 12 | 180 | 0.0 | 3.2 | 0.00 | 1.30 | 0.00 | 77 | 1007.1 |
| 20260507082215 | 12 | 180 | 0.0 | 0.0 | 0.00 | 1.30 | 0.00 | 80 | 1007.4 |
| 20260507081710 | 12 | 180 | 0.0 | 1.6 | 0.00 | 1.30 | 0.00 | 79 | 1007.4 |
| 20260507081207 | 12 | 180 | 0.0 | 1.6 | 0.00 | 1.30 | 0.00 | 78 | 1007.1 |
| 20260507080705 | 12 | 90 | 0.0 | 0.0 | 0.00 | 1.30 | 0.00 | 80 | 1007.1 |
| 20260507080158 | 12 | 89 | 0.0 | 0.0 | 0.00 | 1.30 | 0.00 | 80 | 1007.1 |
| 20260507075651 | 12 | 89 | 0.0 | 0.0 | 0.00 | 1.30 | 0.00 | 80 | 1007.1 |
| 20260507075118 | 12 | 89 | 0.0 | 0.0 | 0.00 | 1.30 | 0.00 | 80 | 1006.7 |
| 20260507074604 | 12 | 89 | 0.0 | 0.0 | 0.00 | 1.30 | 0.00 | 80 | 1006.4 |
| 20260507074100 | 12 | 90 | 0.0 | 3.2 | 0.00 | 1.30 | 0.00 | 77 | 1006.4 |
| 20260507073549 | 12 | 135 | 0.0 | 3.2 | 0.00 | 1.30 | 0.00 | 78 | 1006.4 |
| 20260507073043 | 12 | 180 | 1.6 | 3.2 | 0.00 | 1.30 | 0.00 | 77 | 1006.7 |
| 20260507072523 | 12 | 180 | 0.0 | 3.2 | 0.00 | 1.30 | 0.00 | 79 | 1006.7 |
| 20260507072015 | 12 | 180 | 0.0 | 1.6 | 0.00 | 1.30 | 0.00 | 78 | 1006.4 |
| 20260507071501 | 12 | 180 | 0.0 | 1.6 | 0.00 | 1.30 | 0.00 | 79 | 1006.4 |
| 20260507070954 | 12 | 225 | 0.0 | 3.2 | 0.00 | 1.30 | 0.00 | 78 | 1006.7 |
| 20260507070437 | 12 | 111 | 0.0 | 6.4 | 0.03 | 1.30 | 0.00 | 78 | 1006.7 |
| 20260507065927 | 12 | 180 | 0.0 | 3.2 | 0.03 | 1.30 | 0.00 | 78 | 1006.7 |
| 20260507065413 | 12 | 180 | 0.0 | 6.4 | 0.03 | 1.30 | 0.00 | 78 | 1006.7 |
| 20260507064908 | 12 | 180 | 3.2 | 6.4 | 0.03 | 1.30 | 0.00 | 77 | 1006.7 |
| 20260507064407 | 12 | 184 | 3.2 | 8.0 | 0.03 | 1.30 | 0.00 | 78 | 1006.4 |
| 20260507063856 | 12 | 135 | 0.0 | 12.9 | 0.05 | 1.30 | 0.00 | 79 | 1006.7 |
| 20260507063349 | 12 | 182 | 3.2 | 8.0 | 0.08 | 1.30 | 0.00 | 78 | 1006.7 |
| 20260507062837 | 12 | 180 | 1.6 | 6.4 | 0.13 | 1.30 | 0.00 | 78 | 1006.7 |
| 20260507062328 | 12 | 141 | 3.2 | 6.4 | 0.13 | 1.30 | 0.00 | 80 | 1006.7 |
| 20260507061827 | 12 | 180 | 1.6 | 3.2 | 0.13 | 1.30 | 0.00 | 81 | 1006.7 |
| 20260507061312 | 12 | 180 | 1.6 | 6.4 | 0.13 | 1.30 | 0.00 | 82 | 1007.1 |
| 20260507060804 | 12 | 180 | 0.0 | 1.6 | 0.13 | 1.27 | 0.00 | 83 | 1007.1 |
| 20260507060304 | 12 | 135 | 0.0 | 3.2 | 0.18 | 1.27 | 0.00 | 82 | 1006.7 |
| 20260507055743 | 12 | 151 | 1.6 | 1.6 | 0.20 | 1.27 | 0.00 | 82 | 1006.4 |
| 20260507055241 | 12 | 144 | 0.0 | 3.2 | 0.30 | 1.27 | 0.00 | 82 | 1006.4 |
| 20260507054728 | 13 | 191 | 3.2 | 6.4 | 0.30 | 1.27 | 0.00 | 83 | 1006.4 |
| 20260507054223 | 13 | 135 | 0.0 | 3.2 | 0.33 | 1.24 | 0.00 | 83 | 1006.7 |
| 20260507053719 | 13 | 225 | 1.6 | 6.4 | 0.36 | 1.22 | 0.00 | 83 | 1006.7 |
| 20260507053216 | 13 | 197 | 6.4 | 6.4 | 0.36 | 1.22 | 0.00 | 81 | 1006.7 |
| 20260507052711 | 13 | 184 | 3.2 | 6.4 | 0.33 | 1.17 | 0.00 | 82 | 1006.7 |
| 20260507052205 | 13 | 157 | 0.0 | 3.2 | 0.36 | 1.17 | 0.00 | 84 | 1006.7 |
| 20260507051702 | 13 | 135 | 0.0 | 3.2 | 0.38 | 1.17 | 0.00 | 84 | 1006.7 |
| 20260507051159 | 13 | 270 | 0.0 | 0.0 | 0.36 | 1.14 | 0.00 | 84 | 1006.7 |
| 20260507050657 | 13 | 135 | 0.0 | 3.2 | 0.43 | 1.14 | 0.00 | 84 | 1006.7 |
| 20260507050155 | 13 | 135 | 0.0 | 1.6 | 0.36 | 1.04 | 0.00 | 84 | 1006.4 |
| 20260507045642 | 13 | 180 | 1.6 | 6.4 | 0.33 | 1.02 | 0.00 | 83 | 1006.0 |
| 20260507045130 | 13 | 166 | 6.4 | 8.0 | 0.28 | 0.97 | 0.00 | 83 | 1006.0 |
| 20260507044628 | 13 | 208 | 1.6 | 3.2 | 0.23 | 0.94 | 0.00 | 82 | 1006.7 |
| 20260507044111 | 13 | 219 | 3.2 | 6.4 | 0.20 | 0.91 | 0.00 | 83 | 1006.7 |
| 20260507043558 | 13 | 180 | 1.6 | 3.2 | 0.15 | 0.86 | 0.00 | 83 | 1007.1 |
| 20260507043049 | 14 | 134 | 1.6 | 3.2 | 0.15 | 0.86 | 0.00 | 83 | 1006.7 |
| 20260507042546 | 14 | 202 | 0.0 | 1.6 | 0.13 | 0.84 | 0.00 | 82 | 1006.4 |
| 20260507042042 | 14 | 178 | 1.6 | 3.2 | 0.13 | 0.79 | 0.00 | 81 | 1006.4 |
| 20260507041540 | 14 | 168 | 1.6 | 8.0 | 0.10 | 0.76 | 0.00 | 80 | 1006.7 |
| 20260507041034 | 15 | 151 | 1.6 | 3.2 | 0.08 | 0.74 | 0.00 | 77 | 1007.1 |
| 20260507040518 | 15 | 133 | 0.0 | 3.2 | 0.03 | 0.69 | 0.00 | 74 | 1007.1 |
| 20260507040002 | 15 | 131 | 1.6 | 8.0 | 0.03 | 0.69 | 0.00 | 74 | 1006.4 |
| 20260507035457 | 15 | 138 | 6.4 | 8.0 | 0.03 | 0.69 | 0.00 | 74 | 1006.7 |
| 20260507034954 | 15 | 177 | 1.6 | 3.2 | 0.03 | 0.69 | 0.00 | 74 | 1006.4 |
| 20260507034453 | 15 | 180 | 0.0 | 3.2 | 0.03 | 0.69 | 0.00 | 73 | 1006.0 |
| 20260507033947 | 16 | 180 | 1.6 | 6.4 | 0.03 | 0.69 | 0.00 | 73 | 1005.7 |
| 20260507033436 | 16 | 135 | 0.0 | 6.4 | 0.03 | 0.69 | 0.00 | 74 | 1006.0 |
| 20260507032936 | 16 | 225 | 0.0 | 8.0 | 0.03 | 0.69 | 0.00 | 75 | 1006.0 |
| 20260507032434 | 16 | 140 | 1.6 | 6.4 | 0.03 | 0.69 | 0.00 | 75 | 1006.0 |
| 20260507031932 | 16 | 135 | 0.0 | 6.4 | 0.00 | 0.66 | 0.00 | 75 | 1006.0 |
| 20260507031420 | 16 | 177 | 1.6 | 6.4 | 0.00 | 0.66 | 0.00 | 74 | 1005.7 |
| 20260507030916 | 16 | 180 | 0.0 | 1.6 | 0.00 | 0.66 | 0.00 | 74 | 1006.0 |
| 20260507030414 | 16 | 135 | 1.6 | 8.0 | 0.00 | 0.66 | 0.00 | 74 | 1006.4 |
| 20260507025911 | 16 | 135 | 0.0 | 3.2 | 0.00 | 0.66 | 0.00 | 74 | 1006.4 |
| 20260507025357 | 16 | 180 | 0.0 | 1.6 | 0.00 | 0.66 | 0.00 | 73 | 1006.0 |
| 20260507024849 | 16 | 180 | 0.0 | 1.6 | 0.00 | 0.66 | 0.00 | 73 | 1005.7 |
| 20260507024344 | 16 | 156 | 0.0 | 1.6 | 0.00 | 0.66 | 0.00 | 72 | 1005.4 |
| 20260507023825 | 16 | 132 | 1.6 | 8.0 | 0.00 | 0.66 | 0.00 | 74 | 1005.0 |
| 20260507023323 | 16 | 161 | 4.8 | 6.4 | 0.00 | 0.66 | 0.00 | 71 | 1005.0 |
| 20260507022819 | 16 | 151 | 4.8 | 6.4 | 0.00 | 0.66 | 0.00 | 73 | 1005.4 |
| 20260507022315 | 17 | 138 | 1.6 | 3.2 | 0.00 | 0.66 | 0.00 | 73 | 1005.7 |
| 20260507021758 | 17 | 135 | 1.6 | 1.6 | 0.00 | 0.66 | 0.00 | 74 | 1005.4 |
| 20260507021238 | 17 | 180 | 3.2 | 6.4 | 0.00 | 0.66 | 0.00 | 77 | 1005.4 |
| 20260507020720 | 17 | 134 | 6.4 | 8.0 | 0.00 | 0.66 | 0.00 | 77 | 1005.4 |
| 20260507020206 | 17 | 180 | 0.0 | 3.2 | 0.00 | 0.66 | 0.00 | 78 | 1005.0 |
| 20260507015705 | 17 | 180 | 0.0 | 1.6 | 0.00 | 0.66 | 0.00 | 79 | 1005.0 |
| 20260507015200 | 17 | 135 | 0.0 | 0.0 | 0.00 | 0.66 | 0.00 | 79 | 1005.4 |
| 20260507014654 | 17 | 135 | 0.0 | 3.2 | 0.00 | 0.66 | 0.00 | 79 | 1005.0 |
| 20260507014140 | 17 | 135 | 1.6 | 3.2 | 0.00 | 0.66 | 0.00 | 79 | 1005.0 |
| 20260507013638 | 17 | 180 | 0.0 | 3.2 | 0.00 | 0.66 | 0.00 | 78 | 1005.0 |
| 20260507013138 | 17 | 180 | 3.2 | 6.4 | 0.00 | 0.66 | 0.00 | 79 | 1005.0 |
| 20260507012622 | 18 | 151 | 3.2 | 3.2 | 0.00 | 0.66 | 0.00 | 79 | 1004.7 |
| 20260507012104 | 18 | 143 | 1.6 | 3.2 | 0.03 | 0.66 | 0.00 | 79 | 1005.0 |
| 20260507011601 | 18 | 180 | 0.0 | 1.6 | 0.03 | 0.66 | 0.00 | 81 | 1005.4 |
| 20260507011056 | 18 | 135 | 0.0 | 1.6 | 0.05 | 0.66 | 0.00 | 81 | 1005.4 |
| 20260507010553 | 18 | 180 | 0.0 | 3.2 | 0.13 | 0.66 | 0.00 | 82 | 1005.4 |
| 20260507010048 | 18 | 135 | 1.6 | 3.2 | 0.13 | 0.66 | 0.00 | 82 | 1005.4 |
| 20260507005542 | 18 | 158 | 3.2 | 6.4 | 0.15 | 0.66 | 0.00 | 81 | 1005.4 |
| 20260507005037 | 18 | 135 | 1.6 | 6.4 | 0.20 | 0.66 | 0.00 | 81 | 1005.4 |
| 20260507004528 | 18 | 163 | 3.2 | 6.4 | 0.20 | 0.66 | 0.00 | 81 | 1005.0 |
| 20260507004023 | 18 | 135 | 0.0 | 1.6 | 0.20 | 0.66 | 0.00 | 83 | 1005.0 |
| 20260507003521 | 18 | 135 | 0.0 | 0.0 | 0.41 | 0.66 | 0.00 | 83 | 1005.0 |
| 20260507003008 | 18 | 135 | 3.2 | 3.2 | 0.46 | 0.66 | 0.00 | 83 | 1004.7 |
| 20260507002504 | 19 | 180 | 1.6 | 3.2 | 0.48 | 0.66 | 0.00 | 83 | 1005.0 |
| 20260507002001 | 19 | 135 | 0.0 | 1.6 | 0.48 | 0.64 | 0.00 | 83 | 1005.0 |
| 20260507001448 | 19 | 135 | 0.0 | 0.0 | 0.46 | 0.61 | 0.00 | 82 | 1004.7 |
| 20260507000939 | 19 | 135 | 0.0 | 0.0 | 0.43 | 0.56 | 0.00 | 81 | 1004.7 |
| 20260507000435 | 19 | 135 | 0.0 | 0.0 | 0.41 | 0.51 | 0.00 | 80 | 1004.7 |
| 20260506235933 | 19 | 135 | 0.0 | 0.0 | 0.41 | 0.51 | 0.00 | 80 | 1004.4 |
| 20260506235419 | 19 | 135 | 0.0 | 0.0 | 0.38 | 0.48 | 0.00 | 79 | 1004.4 |
| 20260506234915 | 19 | 135 | 0.0 | 1.6 | 0.33 | 0.43 | 0.00 | 79 | 1004.7 |
| 20260506234408 | 20 | 225 | 0.0 | 3.2 | 0.33 | 0.43 | 0.00 | 78 | 1004.4 |
| 20260506233852 | 20 | 180 | 1.6 | 1.6 | 0.28 | 0.36 | 0.00 | 75 | 1004.7 |
| 20260506233347 | 20 | 270 | 0.0 | 3.2 | 0.13 | 0.20 | 0.00 | 74 | 1004.4 |
| 20260506232841 | 21 | 270 | 0.0 | 1.6 | 0.08 | 0.15 | 0.00 | 73 | 1004.4 |
| 20260506232324 | 21 | 270 | 0.0 | 0.0 | 0.08 | 0.15 | 0.00 | 68 | 1004.0 |
| 20260506231823 | 21 | 270 | 0.0 | 0.0 | 0.05 | 0.13 | 0.00 | 67 | 1004.0 |
| 20260506231304 | 21 | 270 | 0.0 | 0.0 | 0.03 | 0.10 | 0.00 | 66 | 1004.0 |
| 20260506230804 | 21 | 315 | 0.0 | 1.6 | 0.08 | 0.10 | 0.00 | 67 | 1004.0 |
| 20260506230258 | 21 | 315 | 0.0 | 1.6 | 0.08 | 0.10 | 0.00 | 65 | 1003.7 |
| 20260506225748 | 21 | 332 | 3.2 | 3.2 | 0.08 | 0.10 | 0.00 | 64 | 1003.7 |
| 20260506225243 | 21 | 270 | 0.0 | 1.6 | 0.08 | 0.10 | 0.00 | 64 | 1003.7 |
| 20260506224741 | 21 | 313 | 1.6 | 3.2 | 0.08 | 0.10 | 0.00 | 64 | 1003.7 |
| 20260506224235 | 21 | 279 | 1.6 | 3.2 | 0.05 | 0.08 | 0.00 | 64 | 1003.7 |
| 20260506223731 | 21 | 328 | 0.0 | 11.3 | 0.05 | 0.08 | 0.00 | 63 | 1003.7 |
| 20260506223226 | 22 | 26 | 1.6 | 8.0 | 0.05 | 0.08 | 0.00 | 63 | 1003.7 |
| 20260506222724 | 22 | 315 | 0.0 | 3.2 | 0.08 | 0.08 | 0.00 | 63 | 1003.3 |
| 20260506222208 | 22 | 315 | 1.6 | 3.2 | 0.08 | 0.08 | 0.00 | 63 | 1003.3 |
| 20260506221652 | 22 | 319 | 3.2 | 6.4 | 0.08 | 0.08 | 0.00 | 63 | 1003.7 |
| 20260506221148 | 22 | 308 | 8.0 | 11.3 | 0.08 | 0.08 | 0.00 | 62 | 1003.3 |
| 20260506220632 | 22 | 330 | 1.6 | 8.0 | 0.03 | 0.03 | 0.00 | 62 | 1003.3 |
| 20260506220125 | 22 | 312 | 3.2 | 8.0 | 0.03 | 0.03 | 0.00 | 62 | 1003.3 |
| 20260506215622 | 22 | 291 | 1.6 | 6.4 | 0.03 | 0.03 | 0.00 | 62 | 100.2 |
| 20260506215116 | 22 | 345 | 3.2 | 3.2 | 0.03 | 0.03 | 0.00 | 63 | 1003.7 |
| 20260506214614 | 22 | 96 | 0.0 | 12.9 | 0.03 | 0.03 | 0.00 | 62 | 1003.7 |
| 20260506214109 | 22 | 214 | 0.0 | 12.9 | 0.03 | 0.03 | 0.00 | 63 | 1003.7 |
| 20260506213605 | 22 | 315 | 3.2 | 11.3 | 0.03 | 0.03 | 0.00 | 63 | 1003.7 |
| 20260506213102 | 22 | 320 | 4.8 | 6.4 | 0.03 | 0.03 | 0.00 | 62 | 1003.7 |
| 20260506212601 | 22 | 340 | 4.8 | 11.3 | 0.00 | 0.00 | 0.00 | 62 | 1003.7 |
| 20260506212058 | 22 | 342 | 4.8 | 6.4 | 0.00 | 0.00 | 0.00 | 62 | 1003.3 |
| 20260506211556 | 22 | 321 | 3.2 | 12.9 | 0.00 | 0.00 | 0.00 | 62 | 1003.3 |
| 20260506211053 | 22 | 351 | 4.8 | 11.3 | 0.00 | 0.69 | 0.00 | 61 | 1003.3 |
| 20260506210548 | 22 | 341 | 0.0 | 3.2 | 0.00 | 0.69 | 0.00 | 62 | 1003.3 |
| 20260506210039 | 22 | 318 | 6.4 | 16.1 | 0.00 | 0.69 | 0.00 | 61 | 1003.3 |
| 20260506205539 | 22 | 322 | 4.8 | 8.0 | 0.00 | 0.69 | 0.00 | 61 | 1003.3 |
| 20260506205036 | 22 | 301 | 3.2 | 12.9 | 0.00 | 0.69 | 0.00 | 61 | 1003.3 |
| 20260506204523 | 23 | 315 | 1.6 | 11.3 | 0.00 | 0.69 | 0.00 | 61 | 1003.3 |
| 20260506204015 | 23 | 326 | 4.8 | 11.3 | 0.00 | 0.69 | 0.00 | 61 | 1003.0 |
| 20260506203503 | 23 | 9 | 6.4 | 8.0 | 0.00 | 0.69 | 0.00 | 61 | 1003.0 |
| 20260506202957 | 23 | 336 | 4.8 | 11.3 | 0.00 | 0.69 | 0.00 | 60 | 1003.0 |
| 20260506202452 | 22 | 338 | 6.4 | 12.9 | 0.00 | 0.69 | 0.00 | 61 | 1003.0 |
| 20260506201948 | 22 | 321 | 4.8 | 8.0 | 0.00 | 0.69 | 0.00 | 61 | 1003.0 |
| 20260506201437 | 22 | 315 | 6.4 | 8.0 | 0.00 | 0.69 | 0.00 | 61 | 1003.3 |
| 20260506200925 | 22 | 343 | 6.4 | 12.9 | 0.00 | 0.69 | 0.00 | 61 | 1003.3 |
| 20260506200412 | 22 | 303 | 1.6 | 8.0 | 0.00 | 0.69 | 0.00 | 62 | 1003.0 |
| 20260506195855 | 22 | 327 | 4.8 | 12.9 | 0.00 | 0.69 | 0.00 | 62 | 1003.3 |
| 20260506195349 | 22 | 329 | 6.4 | 11.3 | 0.00 | 0.69 | 0.00 | 62 | 1003.3 |
| 20260506194838 | 22 | 354 | 6.4 | 11.3 | 0.00 | 0.69 | 0.00 | 62 | 1003.3 |
| 20260506194326 | 22 | 327 | 6.4 | 16.1 | 0.00 | 0.69 | 0.00 | 61 | 1003.3 |
| 20260506193822 | 22 | 137 | 1.6 | 11.3 | 0.00 | 0.69 | 0.00 | 62 | 1003.3 |
| 20260506193310 | 22 | 329 | 4.8 | 12.9 | 0.00 | 0.69 | 0.00 | 62 | 1003.3 |
| 20260506192806 | 22 | 324 | 8.0 | 8.0 | 0.00 | 0.69 | 0.00 | 62 | 1003.3 |
| 20260506192305 | 22 | 169 | 3.2 | 8.0 | 0.00 | 0.69 | 0.00 | 62 | 1003.3 |
| 20260506191755 | 22 | 88 | 1.6 | 16.1 | 0.00 | 0.69 | 0.00 | 62 | 1003.3 |